sensor_id;sensor_type;location;lat;lon;timestamp;temperature;humidity
4429;DHT22;2227;47.810;8.810;2022-12-18T00:02:10;-2.60;99.90
4429;DHT22;2227;47.810;8.810;2022-12-18T00:04:39;-2.60;99.90
4429;DHT22;2227;47.810;8.810;2022-12-18T00:07:06;-2.60;99.90
4429;DHT22;2227;47.810;8.810;2022-12-18T00:09:33;-2.60;99.90
4429;DHT22;2227;47.810;8.810;2022-12-18T00:12:06;-2.80;99.90
4429;DHT22;2227;47.810;8.810;2022-12-18T00:14:44;-2.70;99.90
4429;DHT22;2227;47.810;8.810;2022-12-18T00:17:10;-2.70;99.90
4429;DHT22;2227;47.810;8.810;2022-12-18T00:19:37;-2.80;99.90
4429;DHT22;2227;47.810;8.810;2022-12-18T00:22:04;-2.80;99.90
4429;DHT22;2227;47.810;8.810;2022-12-18T00:24:32;-2.80;99.90
4429;DHT22;2227;47.810;8.810;2022-12-18T00:26:59;-2.80;99.90
4429;DHT22;2227;47.810;8.810;2022-12-18T00:29:25;-2.80;99.90
4429;DHT22;2227;47.810;8.810;2022-12-18T05:31:27;-1.50;99.90
4429;DHT22;2227;47.810;8.810;2022-12-18T05:33:54;-1.50;99.90
4429;DHT22;2227;47.810;8.810;2022-12-18T05:36:21;-1.50;99.90
4429;DHT22;2227;47.810;8.810;2022-12-18T05:38:48;-1.40;99.90
4429;DHT22;2227;47.810;8.810;2022-12-18T05:41:15;-1.30;99.90
4429;DHT22;2227;47.810;8.810;2022-12-18T05:43:42;-1.10;99.90
4429;DHT22;2227;47.810;8.810;2022-12-18T05:46:15;-1.20;99.90
4429;DHT22;2227;47.810;8.810;2022-12-18T05:48:44;-1.40;99.90
4429;DHT22;2227;47.810;8.810;2022-12-18T05:51:14;-1.60;99.90
4429;DHT22;2227;47.810;8.810;2022-12-18T05:53:42;-1.60;99.90
4429;DHT22;2227;47.810;8.810;2022-12-18T05:56:17;-2.00;99.90
4429;DHT22;2227;47.810;8.810;2022-12-18T05:58:44;-1.80;99.90
4429;DHT22;2227;47.810;8.810;2022-12-18T06:03:37;-2.00;99.90
4429;DHT22;2227;47.810;8.810;2022-12-18T06:06:20;-1.90;99.90
4429;DHT22;2227;47.810;8.810;2022-12-18T06:08:47;-1.70;99.90
4429;DHT22;2227;47.810;8.810;2022-12-18T06:11:17;-1.50;99.90
4429;DHT22;2227;47.810;8.810;2022-12-18T06:13:44;-1.30;99.90
4429;DHT22;2227;47.810;8.810;2022-12-18T06:16:10;-1.60;99.90
4429;DHT22;2227;47.810;8.810;2022-12-18T06:18:37;-1.50;99.90
4429;DHT22;2227;47.810;8.810;2022-12-18T06:21:04;-1.30;99.90
4429;DHT22;2227;47.810;8.810;2022-12-18T06:23:31;-1.30;99.90
4429;DHT22;2227;47.810;8.810;2022-12-18T06:25:57;-1.10;99.90
4429;DHT22;2227;47.810;8.810;2022-12-18T06:28:24;-1.00;99.90
4429;DHT22;2227;47.810;8.810;2022-12-18T06:30:51;-1.10;99.90
4429;DHT22;2227;47.810;8.810;2022-12-18T06:33:17;-1.10;99.90
4429;DHT22;2227;47.810;8.810;2022-12-18T06:35:44;-1.10;99.90
4429;DHT22;2227;47.810;8.810;2022-12-18T06:38:11;-1.00;99.90
4429;DHT22;2227;47.810;8.810;2022-12-18T06:40:38;-1.00;99.90
4429;DHT22;2227;47.810;8.810;2022-12-18T06:43:06;-1.20;99.90
4429;DHT22;2227;47.810;8.810;2022-12-18T06:45:32;-1.30;99.90
4429;DHT22;2227;47.810;8.810;2022-12-18T06:48:00;-1.20;99.90
4429;DHT22;2227;47.810;8.810;2022-12-18T06:50:26;-1.00;99.90
4429;DHT22;2227;47.810;8.810;2022-12-18T06:52:53;-1.10;99.90
4429;DHT22;2227;47.810;8.810;2022-12-18T06:55:20;-1.10;99.90
4429;DHT22;2227;47.810;8.810;2022-12-18T06:57:46;-1.20;99.90
4429;DHT22;2227;47.810;8.810;2022-12-18T07:00:13;-1.10;99.90
4429;DHT22;2227;47.810;8.810;2022-12-18T07:02:40;-1.50;99.90
4429;DHT22;2227;47.810;8.810;2022-12-18T07:05:07;-1.60;99.90
4429;DHT22;2227;47.810;8.810;2022-12-18T07:07:36;-1.60;99.90
4429;DHT22;2227;47.810;8.810;2022-12-18T07:10:03;-1.40;99.90
4429;DHT22;2227;47.810;8.810;2022-12-18T07:12:30;-1.40;99.90
4429;DHT22;2227;47.810;8.810;2022-12-18T07:14:56;-1.20;99.90
4429;DHT22;2227;47.810;8.810;2022-12-18T07:17:23;-1.10;99.90
4429;DHT22;2227;47.810;8.810;2022-12-18T07:19:49;-1.10;99.90
4429;DHT22;2227;47.810;8.810;2022-12-18T07:22:16;-1.20;99.90
4429;DHT22;2227;47.810;8.810;2022-12-18T07:24:42;-1.00;99.90
4429;DHT22;2227;47.810;8.810;2022-12-18T07:27:09;-0.90;99.90
4429;DHT22;2227;47.810;8.810;2022-12-18T07:29:36;-1.10;99.90
4429;DHT22;2227;47.810;8.810;2022-12-18T07:32:03;-1.10;99.90
4429;DHT22;2227;47.810;8.810;2022-12-18T07:34:30;-1.00;99.90
4429;DHT22;2227;47.810;8.810;2022-12-18T07:36:56;-1.00;99.90
4429;DHT22;2227;47.810;8.810;2022-12-18T07:39:23;-0.90;99.90
4429;DHT22;2227;47.810;8.810;2022-12-18T07:41:49;-0.80;99.90
4429;DHT22;2227;47.810;8.810;2022-12-18T07:44:36;-0.80;99.90
4429;DHT22;2227;47.810;8.810;2022-12-18T07:47:03;-0.70;99.90
4429;DHT22;2227;47.810;8.810;2022-12-18T07:49:37;-0.60;99.90
4429;DHT22;2227;47.810;8.810;2022-12-18T07:52:03;-0.60;99.90
4429;DHT22;2227;47.810;8.810;2022-12-18T07:54:30;-0.60;99.90
4429;DHT22;2227;47.810;8.810;2022-12-18T07:56:56;-0.60;99.90
4429;DHT22;2227;47.810;8.810;2022-12-18T07:59:23;-0.60;99.90
4429;DHT22;2227;47.810;8.810;2022-12-18T08:01:50;-0.70;99.90
4429;DHT22;2227;47.810;8.810;2022-12-18T08:04:16;-0.80;99.90
4429;DHT22;2227;47.810;8.810;2022-12-18T08:06:43;-1.00;99.90
4429;DHT22;2227;47.810;8.810;2022-12-18T08:09:13;-0.90;99.90
4429;DHT22;2227;47.810;8.810;2022-12-18T08:11:40;-0.80;99.90
4429;DHT22;2227;47.810;8.810;2022-12-18T08:14:06;-0.70;99.90
4429;DHT22;2227;47.810;8.810;2022-12-18T08:16:33;-0.60;99.90
4429;DHT22;2227;47.810;8.810;2022-12-18T08:19:00;-0.60;99.90
4429;DHT22;2227;47.810;8.810;2022-12-18T08:21:27;-0.70;99.90
4429;DHT22;2227;47.810;8.810;2022-12-18T08:23:55;-0.80;99.90
4429;DHT22;2227;47.810;8.810;2022-12-18T08:26:22;-0.80;99.90
4429;DHT22;2227;47.810;8.810;2022-12-18T08:28:50;-0.60;99.90
4429;DHT22;2227;47.810;8.810;2022-12-18T08:31:17;-0.50;99.90
4429;DHT22;2227;47.810;8.810;2022-12-18T08:33:43;-0.40;99.90
4429;DHT22;2227;47.810;8.810;2022-12-18T08:36:10;-0.30;99.90
4429;DHT22;2227;47.810;8.810;2022-12-18T08:38:37;-0.20;99.90
4429;DHT22;2227;47.810;8.810;2022-12-18T08:41:07;-0.20;99.90
4429;DHT22;2227;47.810;8.810;2022-12-18T08:43:35;-0.30;99.90
4429;DHT22;2227;47.810;8.810;2022-12-18T08:46:20;-0.20;99.90
4429;DHT22;2227;47.810;8.810;2022-12-18T08:48:48;-0.20;99.90
4429;DHT22;2227;47.810;8.810;2022-12-18T08:51:16;-0.10;99.90
4429;DHT22;2227;47.810;8.810;2022-12-18T08:53:43;-0.10;99.90
4429;DHT22;2227;47.810;8.810;2022-12-18T08:56:11;-0.30;99.90
4429;DHT22;2227;47.810;8.810;2022-12-18T08:58:37;-0.40;99.90
4429;DHT22;2227;47.810;8.810;2022-12-18T09:01:05;-0.30;99.90
4429;DHT22;2227;47.810;8.810;2022-12-18T09:03:32;-0.20;99.90
4429;DHT22;2227;47.810;8.810;2022-12-18T09:05:59;-0.10;99.90
4429;DHT22;2227;47.810;8.810;2022-12-18T09:08:26;-0.10;99.90
4429;DHT22;2227;47.810;8.810;2022-12-18T09:10:53;-0.10;99.90
4429;DHT22;2227;47.810;8.810;2022-12-18T09:13:19;-0.10;99.90
4429;DHT22;2227;47.810;8.810;2022-12-18T09:15:53;-0.10;99.90
4429;DHT22;2227;47.810;8.810;2022-12-18T09:18:21;0.10;99.90
4429;DHT22;2227;47.810;8.810;2022-12-18T09:20:48;0.20;99.90
4429;DHT22;2227;47.810;8.810;2022-12-18T09:23:16;0.20;99.90
4429;DHT22;2227;47.810;8.810;2022-12-18T09:25:43;0.30;99.90
4429;DHT22;2227;47.810;8.810;2022-12-18T09:28:10;0.30;99.90
4429;DHT22;2227;47.810;8.810;2022-12-18T09:30:38;0.00;99.90
4429;DHT22;2227;47.810;8.810;2022-12-18T09:33:05;-0.20;99.90
4429;DHT22;2227;47.810;8.810;2022-12-18T09:35:32;0.00;99.90
4429;DHT22;2227;47.810;8.810;2022-12-18T09:37:59;-0.10;99.90
4429;DHT22;2227;47.810;8.810;2022-12-18T09:40:35;-0.20;99.90
4429;DHT22;2227;47.810;8.810;2022-12-18T09:43:03;-0.30;99.90
4429;DHT22;2227;47.810;8.810;2022-12-18T09:45:40;-0.10;99.90
4429;DHT22;2227;47.810;8.810;2022-12-18T09:48:10;0.10;99.90
4429;DHT22;2227;47.810;8.810;2022-12-18T09:50:40;-0.10;99.90
4429;DHT22;2227;47.810;8.810;2022-12-18T09:53:12;-0.50;99.90
4429;DHT22;2227;47.810;8.810;2022-12-18T09:55:41;-0.80;99.90
4429;DHT22;2227;47.810;8.810;2022-12-18T10:00:35;-1.10;99.90
4429;DHT22;2227;47.810;8.810;2022-12-18T10:03:03;-0.90;99.90
4429;DHT22;2227;47.810;8.810;2022-12-18T10:08:02;-0.90;99.90
4429;DHT22;2227;47.810;8.810;2022-12-18T10:10:38;-0.60;99.90
4429;DHT22;2227;47.810;8.810;2022-12-18T10:13:17;-0.40;99.90
4429;DHT22;2227;47.810;8.810;2022-12-18T10:21:13;0.10;99.90
4429;DHT22;2227;47.810;8.810;2022-12-18T10:23:45;0.20;99.90
4429;DHT22;2227;47.810;8.810;2022-12-18T10:26:14;0.30;99.90
4429;DHT22;2227;47.810;8.810;2022-12-18T10:28:41;0.50;99.90
4429;DHT22;2227;47.810;8.810;2022-12-18T10:31:19;0.60;99.90
4429;DHT22;2227;47.810;8.810;2022-12-18T10:33:46;0.60;99.90
4429;DHT22;2227;47.810;8.810;2022-12-18T10:36:12;0.40;99.90
4429;DHT22;2227;47.810;8.810;2022-12-18T10:38:39;0.30;99.90
4429;DHT22;2227;47.810;8.810;2022-12-18T10:41:28;0.10;99.90
4429;DHT22;2227;47.810;8.810;2022-12-18T10:44:17;-0.10;99.90
4429;DHT22;2227;47.810;8.810;2022-12-18T10:46:41;0.10;99.90
4429;DHT22;2227;47.810;8.810;2022-12-18T10:49:18;0.20;99.90
4429;DHT22;2227;47.810;8.810;2022-12-18T10:51:45;0.00;99.90
4429;DHT22;2227;47.810;8.810;2022-12-18T10:54:15;-0.20;99.90
4429;DHT22;2227;47.810;8.810;2022-12-18T10:56:43;-0.40;99.90
4429;DHT22;2227;47.810;8.810;2022-12-18T10:59:11;-0.50;99.90
4429;DHT22;2227;47.810;8.810;2022-12-18T11:01:48;-0.20;99.90
4429;DHT22;2227;47.810;8.810;2022-12-18T11:04:17;0.00;99.90
4429;DHT22;2227;47.810;8.810;2022-12-18T11:07:03;-0.10;99.90
4429;DHT22;2227;47.810;8.810;2022-12-18T11:11:58;0.40;99.90
4429;DHT22;2227;47.810;8.810;2022-12-18T11:14:27;0.60;99.90
4429;DHT22;2227;47.810;8.810;2022-12-18T11:16:54;0.40;99.90
4429;DHT22;2227;47.810;8.810;2022-12-18T11:19:41;0.10;99.90
4429;DHT22;2227;47.810;8.810;2022-12-18T11:24:58;0.20;99.90
4429;DHT22;2227;47.810;8.810;2022-12-18T11:27:53;0.10;99.90
4429;DHT22;2227;47.810;8.810;2022-12-18T11:30:22;0.00;99.90
4429;DHT22;2227;47.810;8.810;2022-12-18T11:32:49;0.00;99.90
4429;DHT22;2227;47.810;8.810;2022-12-18T11:35:19;-0.10;99.90
4429;DHT22;2227;47.810;8.810;2022-12-18T11:40:36;0.00;99.90
4429;DHT22;2227;47.810;8.810;2022-12-18T11:43:14;-0.30;99.90
4429;DHT22;2227;47.810;8.810;2022-12-18T11:45:45;-0.30;99.90
4429;DHT22;2227;47.810;8.810;2022-12-18T11:48:18;-0.30;99.90
4429;DHT22;2227;47.810;8.810;2022-12-18T11:50:49;-0.50;99.90
4429;DHT22;2227;47.810;8.810;2022-12-18T11:53:17;-0.60;99.90
4429;DHT22;2227;47.810;8.810;2022-12-18T12:11:50;0.10;99.90
4429;DHT22;2227;47.810;8.810;2022-12-18T12:14:23;-0.10;99.90
4429;DHT22;2227;47.810;8.810;2022-12-18T12:40:17;0.40;99.90
4429;DHT22;2227;47.810;8.810;2022-12-18T12:43:15;0.40;99.90
4429;DHT22;2227;47.810;8.810;2022-12-18T12:45:48;0.40;99.90
4429;DHT22;2227;47.810;8.810;2022-12-18T12:50:51;0.60;99.90
4429;DHT22;2227;47.810;8.810;2022-12-18T12:53:23;0.60;99.90
4429;DHT22;2227;47.810;8.810;2022-12-18T12:55:52;0.60;99.90
4429;DHT22;2227;47.810;8.810;2022-12-18T13:01:12;0.40;99.90
4429;DHT22;2227;47.810;8.810;2022-12-18T13:04:02;0.00;99.90
4429;DHT22;2227;47.810;8.810;2022-12-18T13:06:42;-0.30;99.90
4429;DHT22;2227;47.810;8.810;2022-12-18T13:09:11;-0.50;99.90
4429;DHT22;2227;47.810;8.810;2022-12-18T13:11:46;-0.40;99.90
4429;DHT22;2227;47.810;8.810;2022-12-18T13:14:39;-0.30;99.90
4429;DHT22;2227;47.810;8.810;2022-12-18T13:20:10;0.30;99.90
4429;DHT22;2227;47.810;8.810;2022-12-18T13:22:41;0.60;99.90
4429;DHT22;2227;47.810;8.810;2022-12-18T13:27:59;1.10;99.90
4429;DHT22;2227;47.810;8.810;2022-12-18T13:35:50;0.90;99.90
4429;DHT22;2227;47.810;8.810;2022-12-18T13:38:34;0.80;99.90
4429;DHT22;2227;47.810;8.810;2022-12-18T13:41:02;0.90;99.90
4429;DHT22;2227;47.810;8.810;2022-12-18T13:43:54;0.70;99.90
4429;DHT22;2227;47.810;8.810;2022-12-18T13:46:27;0.70;99.90
4429;DHT22;2227;47.810;8.810;2022-12-18T13:49:01;0.80;99.90
4429;DHT22;2227;47.810;8.810;2022-12-18T13:51:29;0.90;99.90
4429;DHT22;2227;47.810;8.810;2022-12-18T13:54:01;0.60;99.90
4429;DHT22;2227;47.810;8.810;2022-12-18T13:56:30;0.30;99.90
4429;DHT22;2227;47.810;8.810;2022-12-18T13:59:33;0.20;99.90
4429;DHT22;2227;47.810;8.810;2022-12-18T14:02:04;-0.10;99.90
4429;DHT22;2227;47.810;8.810;2022-12-18T14:04:34;0.00;99.90
4429;DHT22;2227;47.810;8.810;2022-12-18T14:09:30;-0.40;99.90
4429;DHT22;2227;47.810;8.810;2022-12-18T14:11:58;-0.40;99.90
4429;DHT22;2227;47.810;8.810;2022-12-18T14:14:43;-0.40;99.90
4429;DHT22;2227;47.810;8.810;2022-12-18T14:17:11;-0.30;99.90
4429;DHT22;2227;47.810;8.810;2022-12-18T14:19:40;0.00;99.90
4429;DHT22;2227;47.810;8.810;2022-12-18T14:22:12;0.10;99.90
4429;DHT22;2227;47.810;8.810;2022-12-18T14:24:41;0.20;99.90
4429;DHT22;2227;47.810;8.810;2022-12-18T14:27:24;0.40;99.90
4429;DHT22;2227;47.810;8.810;2022-12-18T14:29:51;0.80;99.90
4429;DHT22;2227;47.810;8.810;2022-12-18T14:32:19;0.90;99.90
4429;DHT22;2227;47.810;8.810;2022-12-18T14:34:47;1.10;99.90
4429;DHT22;2227;47.810;8.810;2022-12-18T14:37:16;1.00;99.90
4429;DHT22;2227;47.810;8.810;2022-12-18T14:42:36;0.60;99.90
4429;DHT22;2227;47.810;8.810;2022-12-18T14:48:09;0.40;99.90
4429;DHT22;2227;47.810;8.810;2022-12-18T14:50:38;0.10;99.90
4429;DHT22;2227;47.810;8.810;2022-12-18T14:53:05;0.10;99.90
4429;DHT22;2227;47.810;8.810;2022-12-18T14:55:31;0.10;99.90
4429;DHT22;2227;47.810;8.810;2022-12-18T14:57:58;0.30;99.90
4429;DHT22;2227;47.810;8.810;2022-12-18T15:00:24;0.30;99.90
4429;DHT22;2227;47.810;8.810;2022-12-18T15:02:54;0.40;99.90
4429;DHT22;2227;47.810;8.810;2022-12-18T15:05:25;0.20;99.90
4429;DHT22;2227;47.810;8.810;2022-12-18T15:07:54;0.10;99.90
4429;DHT22;2227;47.810;8.810;2022-12-18T15:12:49;0.10;99.90
4429;DHT22;2227;47.810;8.810;2022-12-18T15:20:41;0.50;99.90
4429;DHT22;2227;47.810;8.810;2022-12-18T15:23:14;0.70;99.90
4429;DHT22;2227;47.810;8.810;2022-12-18T15:25:40;0.80;99.90
4429;DHT22;2227;47.810;8.810;2022-12-18T15:28:21;0.50;99.90
4429;DHT22;2227;47.810;8.810;2022-12-18T15:31:17;0.70;99.90
4429;DHT22;2227;47.810;8.810;2022-12-18T15:36:22;0.90;99.90
4429;DHT22;2227;47.810;8.810;2022-12-18T15:38:54;0.90;99.90
4429;DHT22;2227;47.810;8.810;2022-12-18T15:41:34;0.90;99.90
4429;DHT22;2227;47.810;8.810;2022-12-18T15:44:02;0.80;99.90
4429;DHT22;2227;47.810;8.810;2022-12-18T15:46:29;0.70;99.90
4429;DHT22;2227;47.810;8.810;2022-12-18T15:48:57;0.80;99.90
4429;DHT22;2227;47.810;8.810;2022-12-18T15:51:29;0.80;99.90
4429;DHT22;2227;47.810;8.810;2022-12-18T15:53:59;1.00;99.90
4429;DHT22;2227;47.810;8.810;2022-12-18T15:56:27;0.90;99.90
4429;DHT22;2227;47.810;8.810;2022-12-18T15:59:14;0.80;99.90
4429;DHT22;2227;47.810;8.810;2022-12-18T16:01:41;0.60;99.90
4429;DHT22;2227;47.810;8.810;2022-12-18T16:04:12;0.70;99.90
4429;DHT22;2227;47.810;8.810;2022-12-18T16:06:39;0.80;99.90
4429;DHT22;2227;47.810;8.810;2022-12-18T16:09:26;0.90;99.90
4429;DHT22;2227;47.810;8.810;2022-12-18T16:11:52;1.00;99.90
4429;DHT22;2227;47.810;8.810;2022-12-18T16:14:23;1.00;99.90
4429;DHT22;2227;47.810;8.810;2022-12-18T16:16:53;1.00;99.90
4429;DHT22;2227;47.810;8.810;2022-12-18T16:19:20;1.10;99.90
4429;DHT22;2227;47.810;8.810;2022-12-18T16:21:50;1.10;99.90
4429;DHT22;2227;47.810;8.810;2022-12-18T16:24:18;1.10;99.90
4429;DHT22;2227;47.810;8.810;2022-12-18T16:26:45;0.90;99.90
4429;DHT22;2227;47.810;8.810;2022-12-18T16:29:12;1.00;99.90
4429;DHT22;2227;47.810;8.810;2022-12-18T16:31:38;0.90;99.90
4429;DHT22;2227;47.810;8.810;2022-12-18T16:34:21;1.00;99.90
4429;DHT22;2227;47.810;8.810;2022-12-18T16:36:52;1.10;99.90
4429;DHT22;2227;47.810;8.810;2022-12-18T16:39:23;1.10;99.90
4429;DHT22;2227;47.810;8.810;2022-12-18T16:41:50;1.10;99.90
4429;DHT22;2227;47.810;8.810;2022-12-18T16:44:17;0.90;99.90
4429;DHT22;2227;47.810;8.810;2022-12-18T16:46:44;0.80;99.90
4429;DHT22;2227;47.810;8.810;2022-12-18T16:49:16;0.80;99.90
4429;DHT22;2227;47.810;8.810;2022-12-18T16:51:45;0.90;99.90
4429;DHT22;2227;47.810;8.810;2022-12-18T16:54:12;0.90;99.90
4429;DHT22;2227;47.810;8.810;2022-12-18T16:56:44;0.90;99.90
4429;DHT22;2227;47.810;8.810;2022-12-18T16:59:13;0.80;99.90
4429;DHT22;2227;47.810;8.810;2022-12-18T17:01:39;0.80;99.90
4429;DHT22;2227;47.810;8.810;2022-12-18T17:04:08;0.90;99.90
4429;DHT22;2227;47.810;8.810;2022-12-18T17:06:39;1.00;99.90
4429;DHT22;2227;47.810;8.810;2022-12-18T17:09:10;1.00;99.90
4429;DHT22;2227;47.810;8.810;2022-12-18T17:11:37;0.90;99.90
4429;DHT22;2227;47.810;8.810;2022-12-18T17:14:14;1.00;99.90
4429;DHT22;2227;47.810;8.810;2022-12-18T17:16:41;0.90;99.90
4429;DHT22;2227;47.810;8.810;2022-12-18T17:19:08;0.70;99.90
4429;DHT22;2227;47.810;8.810;2022-12-18T17:21:48;0.70;99.90
4429;DHT22;2227;47.810;8.810;2022-12-18T17:24:15;0.90;99.90
4429;DHT22;2227;47.810;8.810;2022-12-18T17:26:44;0.90;99.90
4429;DHT22;2227;47.810;8.810;2022-12-18T17:29:18;0.90;99.90
4429;DHT22;2227;47.810;8.810;2022-12-18T17:31:46;0.80;99.90
4429;DHT22;2227;47.810;8.810;2022-12-18T17:34:14;0.50;99.90
4429;DHT22;2227;47.810;8.810;2022-12-18T17:36:41;0.40;99.90
4429;DHT22;2227;47.810;8.810;2022-12-18T17:39:07;0.30;99.90
4429;DHT22;2227;47.810;8.810;2022-12-18T17:41:37;0.40;99.90
4429;DHT22;2227;47.810;8.810;2022-12-18T17:44:04;0.30;99.90
4429;DHT22;2227;47.810;8.810;2022-12-18T17:46:32;0.40;99.90
4429;DHT22;2227;47.810;8.810;2022-12-18T17:49:01;0.50;99.90
4429;DHT22;2227;47.810;8.810;2022-12-18T17:51:28;0.40;99.90
4429;DHT22;2227;47.810;8.810;2022-12-18T17:53:55;0.40;99.90
4429;DHT22;2227;47.810;8.810;2022-12-18T17:56:23;0.50;99.90
4429;DHT22;2227;47.810;8.810;2022-12-18T17:58:50;0.70;99.90
4429;DHT22;2227;47.810;8.810;2022-12-18T18:01:23;0.70;99.90
4429;DHT22;2227;47.810;8.810;2022-12-18T18:03:51;0.70;99.90
4429;DHT22;2227;47.810;8.810;2022-12-18T18:06:20;0.60;99.90
4429;DHT22;2227;47.810;8.810;2022-12-18T18:08:47;0.60;99.90
4429;DHT22;2227;47.810;8.810;2022-12-18T18:11:16;0.60;99.90
4429;DHT22;2227;47.810;8.810;2022-12-18T18:14:04;0.70;99.90
4429;DHT22;2227;47.810;8.810;2022-12-18T18:16:43;0.70;99.90
4429;DHT22;2227;47.810;8.810;2022-12-18T18:19:13;0.70;99.90
4429;DHT22;2227;47.810;8.810;2022-12-18T18:21:43;0.80;99.90
4429;DHT22;2227;47.810;8.810;2022-12-18T18:24:12;0.80;99.90
4429;DHT22;2227;47.810;8.810;2022-12-18T18:26:40;0.80;99.90
4429;DHT22;2227;47.810;8.810;2022-12-18T18:29:16;0.60;99.90
4429;DHT22;2227;47.810;8.810;2022-12-18T18:31:43;0.50;99.90
4429;DHT22;2227;47.810;8.810;2022-12-18T18:34:18;0.40;99.90
4429;DHT22;2227;47.810;8.810;2022-12-18T18:36:45;0.20;99.90
4429;DHT22;2227;47.810;8.810;2022-12-18T18:39:12;0.10;99.90
4429;DHT22;2227;47.810;8.810;2022-12-18T18:41:40;0.10;99.90
4429;DHT22;2227;47.810;8.810;2022-12-18T18:44:13;0.00;99.90
4429;DHT22;2227;47.810;8.810;2022-12-18T18:46:40;0.20;99.90
4429;DHT22;2227;47.810;8.810;2022-12-18T18:49:06;0.30;99.90
4429;DHT22;2227;47.810;8.810;2022-12-18T18:51:33;0.50;99.90
4429;DHT22;2227;47.810;8.810;2022-12-18T18:54:01;0.50;99.90
4429;DHT22;2227;47.810;8.810;2022-12-18T18:56:28;0.70;99.90
4429;DHT22;2227;47.810;8.810;2022-12-18T18:59:14;0.80;99.90
4429;DHT22;2227;47.810;8.810;2022-12-18T19:01:41;0.90;99.90
4429;DHT22;2227;47.810;8.810;2022-12-18T19:04:08;0.90;99.90
4429;DHT22;2227;47.810;8.810;2022-12-18T19:06:35;0.70;99.90
4429;DHT22;2227;47.810;8.810;2022-12-18T19:09:02;0.50;99.90
4429;DHT22;2227;47.810;8.810;2022-12-18T19:11:30;0.70;99.90
4429;DHT22;2227;47.810;8.810;2022-12-18T19:14:16;0.70;99.90
4429;DHT22;2227;47.810;8.810;2022-12-18T19:16:43;0.80;99.90
4429;DHT22;2227;47.810;8.810;2022-12-18T19:19:11;0.80;99.90
4429;DHT22;2227;47.810;8.810;2022-12-18T19:21:38;0.80;99.90
4429;DHT22;2227;47.810;8.810;2022-12-18T19:24:05;0.80;99.90
4429;DHT22;2227;47.810;8.810;2022-12-18T19:26:32;0.80;99.90
4429;DHT22;2227;47.810;8.810;2022-12-18T19:29:07;0.80;99.90
4429;DHT22;2227;47.810;8.810;2022-12-18T19:31:34;0.80;99.90
4429;DHT22;2227;47.810;8.810;2022-12-18T19:34:06;0.70;99.90
4429;DHT22;2227;47.810;8.810;2022-12-18T19:36:35;0.80;99.90
4429;DHT22;2227;47.810;8.810;2022-12-18T19:39:06;0.80;99.90
4429;DHT22;2227;47.810;8.810;2022-12-18T19:41:33;0.70;99.90
4429;DHT22;2227;47.810;8.810;2022-12-18T19:44:00;0.70;99.90
4429;DHT22;2227;47.810;8.810;2022-12-18T19:46:33;0.50;99.90
4429;DHT22;2227;47.810;8.810;2022-12-18T19:49:00;0.50;99.90
4429;DHT22;2227;47.810;8.810;2022-12-18T19:51:28;0.50;99.90
4429;DHT22;2227;47.810;8.810;2022-12-18T19:53:56;0.40;99.90
4429;DHT22;2227;47.810;8.810;2022-12-18T19:56:28;0.20;99.90
4429;DHT22;2227;47.810;8.810;2022-12-18T19:58:55;0.40;99.90
4429;DHT22;2227;47.810;8.810;2022-12-18T20:01:23;0.50;99.90
4429;DHT22;2227;47.810;8.810;2022-12-18T20:03:51;0.60;99.90
4429;DHT22;2227;47.810;8.810;2022-12-18T20:08:51;0.30;99.90
4429;DHT22;2227;47.810;8.810;2022-12-18T20:11:24;0.40;99.90
4429;DHT22;2227;47.810;8.810;2022-12-18T20:13:51;0.60;99.90
4429;DHT22;2227;47.810;8.810;2022-12-18T20:16:18;0.50;99.90
4429;DHT22;2227;47.810;8.810;2022-12-18T20:18:45;0.70;99.90
4429;DHT22;2227;47.810;8.810;2022-12-18T20:21:11;0.80;99.90
4429;DHT22;2227;47.810;8.810;2022-12-18T20:23:39;0.90;99.90
4429;DHT22;2227;47.810;8.810;2022-12-18T20:26:07;0.90;99.90
4429;DHT22;2227;47.810;8.810;2022-12-18T20:28:34;1.00;99.90
4429;DHT22;2227;47.810;8.810;2022-12-18T20:31:02;1.10;99.90
4429;DHT22;2227;47.810;8.810;2022-12-18T20:33:29;1.00;99.90
4429;DHT22;2227;47.810;8.810;2022-12-18T20:36:00;1.00;99.90
4429;DHT22;2227;47.810;8.810;2022-12-18T20:38:28;1.00;99.90
4429;DHT22;2227;47.810;8.810;2022-12-18T20:40:57;1.10;99.90
4429;DHT22;2227;47.810;8.810;2022-12-18T20:43:24;1.10;99.90
4429;DHT22;2227;47.810;8.810;2022-12-18T20:45:50;1.10;99.90
4429;DHT22;2227;47.810;8.810;2022-12-18T20:48:17;1.10;99.90
4429;DHT22;2227;47.810;8.810;2022-12-18T20:51:03;1.10;99.90
4429;DHT22;2227;47.810;8.810;2022-12-18T20:53:32;1.00;99.90
4429;DHT22;2227;47.810;8.810;2022-12-18T20:55:59;1.00;99.90
4429;DHT22;2227;47.810;8.810;2022-12-18T20:58:27;1.10;99.90
4429;DHT22;2227;47.810;8.810;2022-12-18T21:01:11;1.20;99.90
4429;DHT22;2227;47.810;8.810;2022-12-18T21:03:39;1.10;99.90
4429;DHT22;2227;47.810;8.810;2022-12-18T21:06:08;1.10;99.90
4429;DHT22;2227;47.810;8.810;2022-12-18T21:08:35;1.20;99.90
4429;DHT22;2227;47.810;8.810;2022-12-18T21:14:19;1.20;99.90
4429;DHT22;2227;47.810;8.810;2022-12-18T21:16:47;1.40;99.90
4429;DHT22;2227;47.810;8.810;2022-12-18T21:19:16;1.40;99.90
4429;DHT22;2227;47.810;8.810;2022-12-18T21:21:44;1.40;99.90
4429;DHT22;2227;47.810;8.810;2022-12-18T21:24:11;1.30;99.90
4429;DHT22;2227;47.810;8.810;2022-12-18T21:26:38;1.40;99.90
4429;DHT22;2227;47.810;8.810;2022-12-18T21:29:13;1.40;99.90
4429;DHT22;2227;47.810;8.810;2022-12-18T21:31:40;1.30;99.90
4429;DHT22;2227;47.810;8.810;2022-12-18T21:34:09;1.30;99.90
4429;DHT22;2227;47.810;8.810;2022-12-18T21:36:39;1.20;99.90
4429;DHT22;2227;47.810;8.810;2022-12-18T21:39:06;0.90;99.90
4429;DHT22;2227;47.810;8.810;2022-12-18T21:41:32;1.00;99.90
4429;DHT22;2227;47.810;8.810;2022-12-18T21:44:21;1.10;99.90
4429;DHT22;2227;47.810;8.810;2022-12-18T21:46:48;1.10;99.90
4429;DHT22;2227;47.810;8.810;2022-12-18T21:49:23;1.10;99.90
4429;DHT22;2227;47.810;8.810;2022-12-18T21:51:52;1.20;99.90
4429;DHT22;2227;47.810;8.810;2022-12-18T21:54:20;1.20;99.90
4429;DHT22;2227;47.810;8.810;2022-12-18T21:57:00;1.30;99.90
4429;DHT22;2227;47.810;8.810;2022-12-18T21:59:38;1.30;99.90
4429;DHT22;2227;47.810;8.810;2022-12-18T22:02:17;1.20;99.90
4429;DHT22;2227;47.810;8.810;2022-12-18T22:04:45;1.20;99.90
4429;DHT22;2227;47.810;8.810;2022-12-18T22:07:15;1.20;99.90
4429;DHT22;2227;47.810;8.810;2022-12-18T22:09:42;1.10;99.90
4429;DHT22;2227;47.810;8.810;2022-12-18T22:12:11;1.00;99.90
4429;DHT22;2227;47.810;8.810;2022-12-18T22:14:38;1.10;99.90
4429;DHT22;2227;47.810;8.810;2022-12-18T22:17:04;1.10;99.90
4429;DHT22;2227;47.810;8.810;2022-12-18T22:19:32;1.20;99.90
4429;DHT22;2227;47.810;8.810;2022-12-18T22:22:08;1.20;99.90
4429;DHT22;2227;47.810;8.810;2022-12-18T22:24:34;1.30;99.90
4429;DHT22;2227;47.810;8.810;2022-12-18T22:27:01;1.30;99.90
4429;DHT22;2227;47.810;8.810;2022-12-18T22:29:28;1.30;99.90
4429;DHT22;2227;47.810;8.810;2022-12-18T22:32:14;1.30;99.90
4429;DHT22;2227;47.810;8.810;2022-12-18T22:34:56;1.30;99.90
4429;DHT22;2227;47.810;8.810;2022-12-18T22:37:31;1.30;99.90
4429;DHT22;2227;47.810;8.810;2022-12-18T22:39:58;1.40;99.90
4429;DHT22;2227;47.810;8.810;2022-12-18T22:42:29;1.20;99.90
4429;DHT22;2227;47.810;8.810;2022-12-18T22:44:55;1.20;99.90
4429;DHT22;2227;47.810;8.810;2022-12-18T22:47:22;1.30;99.90
4429;DHT22;2227;47.810;8.810;2022-12-18T22:49:55;1.20;99.90
4429;DHT22;2227;47.810;8.810;2022-12-18T22:52:21;1.30;99.90
4429;DHT22;2227;47.810;8.810;2022-12-18T22:54:50;1.40;99.90
4429;DHT22;2227;47.810;8.810;2022-12-18T22:57:19;1.30;99.90
4429;DHT22;2227;47.810;8.810;2022-12-18T22:59:47;1.30;99.90
4429;DHT22;2227;47.810;8.810;2022-12-18T23:02:13;1.00;99.90
4429;DHT22;2227;47.810;8.810;2022-12-18T23:04:40;1.20;99.90
4429;DHT22;2227;47.810;8.810;2022-12-18T23:07:07;1.20;99.90
4429;DHT22;2227;47.810;8.810;2022-12-18T23:09:33;1.20;99.90
4429;DHT22;2227;47.810;8.810;2022-12-18T23:12:01;1.30;99.90